Flugplatz Uetersen/Heist

EDHE · Schleswig-Holstein, Allemagne

METAR anciennes EDHE · Flugplatz Uetersen/Heist

Tu vois ci-dessous les METAR des derniers jours. Sélectionne une année pour parcourir les METAR plus anciens, à partir de l'année 2007.

28 février 2024

Temps Code Temps Temp. Vue Base cloud Vent METAR/SPECI
10:20
V
5 °C 9 km 4.200 ft 220° 220° 7 kt METAR EDHI 280920Z 22007KT 9000 BKN042 05/02 Q1021
09:50
V
4 °C 9 km 4.800 ft 210° 210° 7 kt METAR EDHI 280850Z 21007KT 9000 BKN048 04/02 Q1021
09:20
V
4 °C 9 km 4.600 ft 220° 220° 6 kt METAR EDHI 280820Z 22006KT 180V240 9000 BKN046 04/02 Q1020
08:50
V
3 °C 10 km+ 4.800 ft 200° 200° 7 kt METAR EDHI 280750Z 20007KT 9999 BKN048 03/01 Q1020
08:20
V
3 °C 10 km+ - 190° 190° 5 kt METAR EDHI 280720Z 19005KT 160V230 9999 FEW025 03/01 Q1020
07:50
M
3 °C 10 km+ 2.500 ft 180° 180° 3 kt METAR EDHI 280650Z 18003KT 110V220 9999 FEW018 BKN025 03/00 Q1020
07:20
V
3 °C 10 km+ - 180° 180° 3 kt METAR EDHI 280620Z 18003KT 130V220 9999 FEW019 SCT026 03/01 Q1020
06:50
M
2 °C 10 km+ 1.900 ft Var Var 2 kt METAR EDHI 280550Z VRB02KT 9999 BKN019 02/00 Q1020
06:20
M
2 °C 10 km+ 2.400 ft Var Var 2 kt METAR EDHI 280520Z VRB02KT 9999 FEW020 BKN024 02/00 Q1019
05:50
M
2 °C 10 km+ 2.600 ft Var Var 1 kt METAR EDHI 280450Z AUTO VRB01KT 9999 // FEW021/// BKN026/// OVC110/// 02/00 Q1019
05:20
M
2 °C 10 km+ 2.100 ft 360° 360° 0 kt METAR EDHI 280420Z AUTO 00000KT 9999 // BKN021/// OVC025/// 02/M00 Q1019
04:50
M
2 °C 10 km+ 2.200 ft Var Var 2 kt METAR EDHI 280350Z AUTO VRB02KT 9999 // OVC022/// 02/M00 Q1019
04:20
M
2 °C 10 km+ 1.700 ft 200° 200° 3 kt METAR EDHI 280320Z AUTO 20003KT 160V240 9999 // OVC017/// 02/M00 Q1019
03:50
M
2 °C 10 km+ 1.500 ft 250° 250° 6 kt METAR EDHI 280250Z AUTO 25006KT 9999 // OVC015/// 02/M00 Q1019
03:20
M
2 °C 10 km+ 1.400 ft 240° 240° 7 kt METAR EDHI 280220Z AUTO 24007KT 9999 // OVC014/// 02/M00 Q1019
02:50
M
3 °C 10 km+ 1.500 ft 240° 240° 6 kt METAR EDHI 280150Z AUTO 24006KT 9999 // OVC015/// 03/M00 Q1019
02:20
M
3 °C 10 km+ 1.600 ft 240° 240° 6 kt METAR EDHI 280120Z AUTO 24006KT 9999 // OVC016/// 03/M00 Q1019
01:50
M
3 °C 10 km+ 1.600 ft 250° 250° 5 kt METAR EDHI 280050Z AUTO 25005KT 210V270 9999 // OVC016/// 03/M00 Q1019
01:20
M
3 °C 10 km+ 1.600 ft 220° 220° 3 kt METAR EDHI 280020Z AUTO 22003KT 180V240 9999 // OVC016/// 03/M00 Q1019
00:50
M
3 °C 10 km+ 1.600 ft 260° 260° 6 kt METAR EDHI 272350Z AUTO 26006KT 9999 // OVC016/// 03/01 Q1020
00:20
M
3 °C 9 km 1.600 ft 230° 230° 4 kt METAR EDHI 272320Z AUTO 23004KT 200V270 9000 // OVC016/// 03/00 Q1020

27 février 2024

Temps Code Temps Temp. Vue Base cloud Vent METAR/SPECI
23:50
M
3 °C 10 km+ 1.700 ft 210° 210° 3 kt METAR EDHI 272250Z AUTO 21003KT 180V260 9999 // OVC017/// 03/01 Q1020
23:20
M
3 °C 9 km 1.800 ft 230° 230° 4 kt METAR EDHI 272220Z AUTO 23004KT 190V250 9000 // OVC018/// 03/01 Q1020
22:50
M
3 °C 10 km+ 1.900 ft 270° 270° 4 kt METAR EDHI 272150Z AUTO 27004KT 9999 // OVC019/// 03/01 Q1020
22:20
M
3 °C 10 km+ 1.800 ft 270° 270° 3 kt METAR EDHI 272120Z AUTO 27003KT 9999 // BKN018/// 03/01 Q1019
21:50
M
3 °C 10 km+ 1.700 ft Var Var 2 kt METAR EDHI 272050Z AUTO VRB02KT 9999 // OVC017/// 03/01 Q1019
21:20
M
3 °C 10 km+ 2.000 ft Var Var 2 kt METAR EDHI 272020Z AUTO VRB02KT 9999 // SCT017/// OVC020/// 03/01 Q1019
20:50
M
3 °C 10 km+ 2.000 ft Var Var 2 kt METAR EDHI 271950Z AUTO VRB02KT 9999 // FEW017/// OVC020/// 03/01 Q1019
20:20
M
4 °C 10 km+ 2.200 ft 230° 230° 3 kt METAR EDHI 271920Z AUTO 23003KT 9999 // SCT017/// OVC022/// 04/01 Q1019
19:50
M
4 °C 10 km+ 2.000 ft 280° 280° 4 kt METAR EDHI 271850Z 28004KT 9999 BKN020 04/02 Q1019
19:20
M
5 °C 10 km+ 2.000 ft 260° 260° 4 kt METAR EDHI 271820Z 26004KT 9999 BKN020 05/02 Q1019
18:50
M
5 °C 10 km+ 2.000 ft 280° 280° 5 kt METAR EDHI 271750Z 28005KT 9999 BKN020 05/02 Q1019
18:20
M
5 °C 10 km+ 2.000 ft 290° 290° 4 kt METAR EDHI 271720Z 29004KT 240V320 9999 BKN020 05/02 Q1018
17:50
M
5 °C 10 km+ 1.900 ft Var Var 2 kt METAR EDHI 271650Z VRB02KT 9999 BKN019 05/01 Q1018
17:20
M
5 °C 10 km+ 1.900 ft Var Var 2 kt METAR EDHI 271620Z VRB02KT 9999 BKN019 05/02 Q1018
16:50
M
5 °C 10 km+ 1.800 ft 290° 290° 3 kt METAR EDHI 271550Z 29003KT 240V320 9999 BKN018 05/01 Q1018
16:20
M
5 °C 10 km+ 1.800 ft Var Var 2 kt METAR EDHI 271520Z VRB02KT 9999 BKN018 05/02 Q1018
15:50
M
5 °C 10 km+ 1.700 ft Var Var 2 kt METAR EDHI 271450Z VRB02KT 9999 BKN017 05/02 Q1018
15:20
M
5 °C 10 km+ 1.600 ft Var Var 2 kt METAR EDHI 271420Z VRB02KT 9999 BKN016 05/02 Q1018
14:50
M
5 °C 10 km+ 1.600 ft Var Var 1 kt METAR EDHI 271350Z VRB01KT 9999 BKN016 05/02 Q1018
14:20
M
5 °C 10 km+ 1.400 ft Var Var 2 kt METAR EDHI 271320Z VRB02KT 9999 BKN014 05/02 Q1018
13:50
M
5 °C 10 km+ 1.300 ft 080° 080° 3 kt METAR EDHI 271250Z 08003KT 360V170 9999 BKN013 05/02 Q1018
13:20
M
4 °C 10 km+ 1.200 ft 080° 080° 3 kt METAR EDHI 271220Z 08003KT 010V150 9999 BKN012 04/02 Q1019
12:50
M
4 °C 10 km+ 1.200 ft Var Var 2 kt METAR EDHI 271150Z VRB02KT 9999 OVC012 04/02 Q1019
12:20
M
4 °C 10 km+ 1.000 ft 310° 310° 4 kt METAR EDHI 271120Z 31004KT 280V340 9999 OVC010 04/02 Q1019
11:50
M
4 °C 10 km+ 1.000 ft 320° 320° 3 kt METAR EDHI 271050Z 32003KT 270V030 9999 BKN010 04/02 Q1019
11:20
I
4 °C 10 km+ 900 ft 020° 020° 5 kt METAR EDHI 271020Z 02005KT 350V060 9999 OVC009 04/02 Q1019
10:50
I
4 °C 10 km+ 800 ft 040° 040° 5 kt METAR EDHI 270950Z 04005KT 020V080 9999 OVC008 04/02 Q1019
10:20
I
3 °C 10 km+ 700 ft 010° 010° 7 kt METAR EDHI 270920Z 01007KT 9999 OVC007 03/02 Q1019
09:50
I
3 °C 10 km+ 700 ft 020° 020° 6 kt METAR EDHI 270850Z 02006KT 330V070 9999 OVC007 03/02 Q1019
09:20
I
3 °C 10 km+ 700 ft 040° 040° 5 kt METAR EDHI 270820Z 04005KT 9999 OVC007 03/02 Q1019
08:50
I
3 °C 8 km 600 ft 050° 050° 7 kt METAR EDHI 270750Z 05007KT 8000 OVC006 03/02 Q1019
08:20
I
3 °C 8 km 700 ft 020° 020° 6 kt METAR EDHI 270720Z 02006KT 350V050 8000 OVC007 03/02 Q1019
07:50
I
3 °C 10 km+ 700 ft 010° 010° 8 kt METAR EDHI 270650Z 01008KT 9999 OVC007 03/02 Q1018
07:20
I
3 °C 7 km 600 ft 020° 020° 6 kt METAR EDHI 270620Z 02006KT 7000 OVC006 03/02 Q1018
06:50
L
3 °C 6 km 400 ft 020° 020° 8 kt METAR EDHI 270550Z 02008KT 6000 OVC004 03/02 Q1018
06:20
I
3 °C 8 km 500 ft 050° 050° 7 kt METAR EDHI 270520Z 05007KT 8000 OVC005 03/02 Q1018
05:50
I
4 °C 10 km+ 700 ft 040° 040° 7 kt METAR EDHI 270450Z AUTO 04007KT 9999 // OVC007/// 04/02 Q1017
05:20
I
4 °C 9 km 700 ft 040° 040° 5 kt METAR EDHI 270420Z AUTO 04005KT 360V070 9000 // OVC007/// 04/03 Q1017
04:50
I
4 °C 9 km 700 ft 030° 030° 7 kt METAR EDHI 270350Z AUTO 03007KT 9000 // OVC007/// 04/03 Q1017
04:20
I
4 °C 8 km 700 ft 030° 030° 7 kt METAR EDHI 270320Z AUTO 03007KT 8000 // OVC007/// 04/03 Q1017
03:50
I
4 °C 7 km 700 ft 030° 030° 7 kt METAR EDHI 270250Z AUTO 03007KT 7000 // OVC007/// 04/03 Q1017
03:20
I
4 °C 6 km 600 ft 050° 050° 6 kt METAR EDHI 270220Z AUTO 05006KT 6000 // OVC006/// 04/03 Q1017
02:50
I
4 °C 6 km 600 ft 040° 040° 5 kt METAR EDHI 270150Z AUTO 04005KT 010V070 6000 // OVC006/// 04/03 Q1017
02:20
I
4 °C 7 km 500 ft 020° 020° 6 kt METAR EDHI 270120Z AUTO 02006KT 7000 // OVC005/// 04/03 Q1016
01:50
I
3 °C 6 km 500 ft 060° 060° 7 kt METAR EDHI 270050Z AUTO 06007KT 030V090 6000 // OVC005/// 03/03 Q1016
01:20
I
3 °C 6 km 500 ft 040° 040° 5 kt METAR EDHI 270020Z AUTO 04005KT 360V080 6000 // OVC005/// 03/03 Q1016
00:50
L
3 °C 6 km 400 ft 040° 040° 5 kt METAR EDHI 262350Z AUTO 04005KT 6000 // OVC004/// 03/03 Q1016
00:20
L
3 °C 5 km 400 ft 060° 060° 5 kt METAR EDHI 262320Z AUTO 06005KT 5000 // OVC004/// 03/03 Q1016

26 février 2024

Temps Code Temps Temp. Vue Base cloud Vent METAR/SPECI
23:50
L
3 °C 5 km 400 ft 040° 040° 9 kt METAR EDHI 262250Z AUTO 04009KT 5000 // OVC004/// 03/03 Q1016
23:20
I
3 °C 6 km 500 ft 050° 050° 8 kt METAR EDHI 262220Z AUTO 05008KT 6000 // OVC005/// 03/02 Q1015
22:50
L
3 °C 5 km 400 ft 050° 050° 9 kt METAR EDHI 262150Z AUTO 05009KT 5000 // BKN004/// 03/02 Q1015
22:20
V
3 °C 8 km 23.000 ft 040° 040° 9 kt METAR EDHI 262120Z AUTO 04009KT 8000 // SCT005/// BKN230/// 03/02 Q1015
21:50
V
3 °C 10 km+ 23.000 ft 040° 040° 6 kt METAR EDHI 262050Z AUTO 04006KT 9999 // SCT140/// BKN230/// 03/02 Q1014
21:20
V
3 °C 10 km+ 15.000 ft 040° 040° 7 kt METAR EDHI 262020Z AUTO 04007KT 9999 // FEW130/// OVC150/// 03/02 Q1014
20:50
V
4 °C 10 km+ 15.000 ft 050° 050° 6 kt METAR EDHI 261950Z AUTO 05006KT 9999 // FEW130/// BKN150/// 04/02 Q1014
20:20
V
4 °C 10 km+ 13.000 ft 050° 050° 6 kt METAR EDHI 261920Z AUTO 05006KT 9999 // BKN130/// 04/02 Q1013
19:50
V
5 °C 10 km+ 15.000 ft 050° 050° 8 kt METAR EDHI 261850Z AUTO 05008KT 9999 // OVC150/// 05/03 Q1013
19:20
V
5 °C 10 km+ - 040° 040° 10 kt METAR EDHI 261820Z 04010KT CAVOK 05/03 Q1012
18:50
V
5 °C 10 km+ - 040° 040° 11 kt METAR EDHI 261750Z 04011KT 9999 FEW009 05/03 Q1012
18:20
I
5 °C 10 km+ 900 ft 040° 040° 11 kt METAR EDHI 261720Z 04011KT 9999 BKN009 05/03 Q1012
17:50
M
5 °C 10 km+ 1.000 ft 030° 030° 10 kt METAR EDHI 261650Z 03010KT 9999 BKN010 05/03 Q1012
17:20
V
5 °C 10 km+ - 030° 030° 11 kt METAR EDHI 261620Z 03011KT 9999 SCT011 05/03 Q1011
16:50
V
6 °C 10 km+ - 030° 030° 10 kt METAR EDHI 261550Z 03010KT 9999 SCT011 06/03 Q1011
16:20
V
6 °C 10 km+ - 030° 030° 12 kt METAR EDHI 261520Z 03012KT 9999 FEW012 06/03 Q1010
15:50
V
6 °C 10 km+ - 020° 020° 10 kt METAR EDHI 261450Z 02010KT 9999 SCT012 06/04 Q1010
15:20
V
7 °C 10 km+ - 020° 020° 9 kt METAR EDHI 261420Z 02009KT 360V060 9999 FEW012 07/04 Q1010
14:50
V
6 °C 10 km+ - 030° 030° 10 kt METAR EDHI 261350Z 03010KT 360V060 9999 SCT010 06/04 Q1009
14:20
V
6 °C 10 km+ - 020° 020° 11 kt METAR EDHI 261320Z 02011KT 9999 FEW010 06/04 Q1009
13:50
V
7 °C 10 km+ - 050° 050° 8 kt METAR EDHI 261250Z 05008KT 9999 FEW013 07/04 Q1009
13:20
V
7 °C 10 km+ - 040° 040° 7 kt METAR EDHI 261220Z 04007KT CAVOK 07/04 Q1008
12:50
V
6 °C 10 km+ - 040° 040° 8 kt METAR EDHI 261150Z 04008KT CAVOK 06/04 Q1008
12:20
V
6 °C 10 km+ - 050° 050° 9 kt METAR EDHI 261120Z 05009KT CAVOK 06/04 Q1008
11:50
V
5 °C 9 km - 040° 040° 8 kt METAR EDHI 261050Z 04008KT 9000 FEW007 05/04 Q1008
11:20
V
4 °C 8 km - 040° 040° 8 kt METAR EDHI 261020Z 04008KT 8000 FEW006 04/03 Q1008
10:50
V
4 °C 9 km - 050° 050° 8 kt METAR EDHI 260950Z 05008KT 9000 FEW004 04/03 Q1008
10:20
I
3 °C 4,8 km - 040° 040° 7 kt METAR EDHI 260920Z 04007KT 4800 BR FEW004 03/03 Q1007
09:50
I
3 °C 4,3 km - 040° 040° 7 kt METAR EDHI 260850Z 04007KT 4300 BR FEW003 03/02 Q1007
09:20
I
2 °C 4,4 km - 040° 040° 6 kt METAR EDHI 260820Z 04006KT 4400 BR FEW003 02/02 Q1007
08:50
I
2 °C 4 km - 050° 050° 5 kt METAR EDHI 260750Z 05005KT 4000 BR NSC 02/02 Q1007
08:20
I
2 °C 4,3 km - 050° 050° 5 kt METAR EDHI 260720Z 05005KT 4300 BR NSC 02/02 Q1006
07:50
I
2 °C 4,5 km - 040° 040° 6 kt METAR EDHI 260650Z 04006KT 4500 BR NSC 02/02 Q1006
07:20
M
2 °C 5 km - 040° 040° 6 kt METAR EDHI 260620Z 04006KT 5000 BR NSC 02/02 Q1006
06:50
M
1 °C 5 km - Var Var 1 kt METAR EDHI 260550Z VRB01KT 5000 BR NSC 01/00 Q1005